sensor_id;sensor_type;location;lat;lon;timestamp;P1;durP1;ratioP1;P2;durP2;ratioP2
20535;SDS011;10426;49.420;8.390;2023-04-25T00:00:55;1.90;;;1.80;;
20535;SDS011;10426;49.420;8.390;2023-04-25T00:03:22;2.00;;;1.90;;
20535;SDS011;10426;49.420;8.390;2023-04-25T00:05:50;1.83;;;1.83;;
20535;SDS011;10426;49.420;8.390;2023-04-25T00:08:17;1.92;;;1.83;;
20535;SDS011;10426;49.420;8.390;2023-04-25T00:10:45;1.60;;;1.60;;
20535;SDS011;10426;49.420;8.390;2023-04-25T00:13:11;1.83;;;1.73;;
20535;SDS011;10426;49.420;8.390;2023-04-25T00:15:38;1.60;;;1.60;;
20535;SDS011;10426;49.420;8.390;2023-04-25T00:18:06;1.73;;;1.70;;
20535;SDS011;10426;49.420;8.390;2023-04-25T00:20:33;1.70;;;1.70;;
20535;SDS011;10426;49.420;8.390;2023-04-25T00:23:01;1.65;;;1.65;;
20535;SDS011;10426;49.420;8.390;2023-04-25T00:25:28;1.90;;;1.85;;
20535;SDS011;10426;49.420;8.390;2023-04-25T00:27:56;1.83;;;1.73;;
20535;SDS011;10426;49.420;8.390;2023-04-25T00:30:23;1.98;;;1.88;;
20535;SDS011;10426;49.420;8.390;2023-04-25T00:32:49;1.70;;;1.70;;
20535;SDS011;10426;49.420;8.390;2023-04-25T00:35:16;2.15;;;1.95;;
20535;SDS011;10426;49.420;8.390;2023-04-25T00:37:43;1.70;;;1.70;;
20535;SDS011;10426;49.420;8.390;2023-04-25T00:40:10;1.70;;;1.60;;
20535;SDS011;10426;49.420;8.390;2023-04-25T00:42:37;1.80;;;1.80;;
20535;SDS011;10426;49.420;8.390;2023-04-25T00:45:06;1.50;;;1.50;;
20535;SDS011;10426;49.420;8.390;2023-04-25T00:47:33;1.90;;;1.80;;
20535;SDS011;10426;49.420;8.390;2023-04-25T00:50:01;1.80;;;1.80;;
20535;SDS011;10426;49.420;8.390;2023-04-25T00:52:28;1.70;;;1.70;;
20535;SDS011;10426;49.420;8.390;2023-04-25T00:54:54;1.95;;;1.85;;
20535;SDS011;10426;49.420;8.390;2023-04-25T00:57:21;1.73;;;1.73;;
20535;SDS011;10426;49.420;8.390;2023-04-25T00:59:48;2.10;;;2.00;;
20535;SDS011;10426;49.420;8.390;2023-04-25T01:02:18;2.13;;;2.03;;
20535;SDS011;10426;49.420;8.390;2023-04-25T01:04:46;2.22;;;2.13;;
20535;SDS011;10426;49.420;8.390;2023-04-25T01:07:13;2.03;;;1.95;;
20535;SDS011;10426;49.420;8.390;2023-04-25T01:09:40;2.00;;;1.90;;
20535;SDS011;10426;49.420;8.390;2023-04-25T01:12:07;2.33;;;2.20;;
20535;SDS011;10426;49.420;8.390;2023-04-25T01:14:34;2.25;;;2.05;;
20535;SDS011;10426;49.420;8.390;2023-04-25T01:17:00;2.90;;;2.20;;
20535;SDS011;10426;49.420;8.390;2023-04-25T01:19:28;2.10;;;2.00;;
20535;SDS011;10426;49.420;8.390;2023-04-25T01:21:57;2.25;;;2.15;;
20535;SDS011;10426;49.420;8.390;2023-04-25T01:24:24;2.15;;;2.13;;
20535;SDS011;10426;49.420;8.390;2023-04-25T01:26:51;2.22;;;2.13;;
20535;SDS011;10426;49.420;8.390;2023-04-25T01:29:18;2.30;;;2.20;;
20535;SDS011;10426;49.420;8.390;2023-04-25T01:31:45;2.30;;;2.20;;
20535;SDS011;10426;49.420;8.390;2023-04-25T01:34:12;2.70;;;2.10;;
20535;SDS011;10426;49.420;8.390;2023-04-25T01:36:39;2.40;;;2.30;;
20535;SDS011;10426;49.420;8.390;2023-04-25T01:39:07;2.50;;;2.40;;
20535;SDS011;10426;49.420;8.390;2023-04-25T01:41:34;2.67;;;2.47;;
20535;SDS011;10426;49.420;8.390;2023-04-25T01:44:01;3.37;;;3.10;;
20535;SDS011;10426;49.420;8.390;2023-04-25T01:46:28;3.80;;;3.60;;
20535;SDS011;10426;49.420;8.390;2023-04-25T01:48:54;4.35;;;4.05;;
20535;SDS011;10426;49.420;8.390;2023-04-25T01:51:21;4.95;;;4.65;;
20535;SDS011;10426;49.420;8.390;2023-04-25T01:53:47;5.03;;;4.72;;
20535;SDS011;10426;49.420;8.390;2023-04-25T01:56:16;5.00;;;4.70;;
20535;SDS011;10426;49.420;8.390;2023-04-25T01:58:43;5.32;;;4.82;;
20535;SDS011;10426;49.420;8.390;2023-04-25T02:01:10;5.37;;;5.00;;
20535;SDS011;10426;49.420;8.390;2023-04-25T02:03:37;5.70;;;5.30;;
20535;SDS011;10426;49.420;8.390;2023-04-25T02:06:03;5.80;;;5.40;;
20535;SDS011;10426;49.420;8.390;2023-04-25T02:08:30;5.72;;;5.32;;
20535;SDS011;10426;49.420;8.390;2023-04-25T02:10:57;6.00;;;5.60;;
20535;SDS011;10426;49.420;8.390;2023-04-25T02:13:25;5.83;;;5.43;;
20535;SDS011;10426;49.420;8.390;2023-04-25T02:15:51;6.00;;;5.60;;
20535;SDS011;10426;49.420;8.390;2023-04-25T02:18:18;5.78;;;5.38;;
20535;SDS011;10426;49.420;8.390;2023-04-25T02:20:46;6.85;;;5.97;;
20535;SDS011;10426;49.420;8.390;2023-04-25T02:23:13;6.40;;;5.90;;
20535;SDS011;10426;49.420;8.390;2023-04-25T02:25:40;5.82;;;5.43;;
20535;SDS011;10426;49.420;8.390;2023-04-25T02:28:07;6.35;;;5.90;;
20535;SDS011;10426;49.420;8.390;2023-04-25T02:30:35;6.22;;;5.72;;
20535;SDS011;10426;49.420;8.390;2023-04-25T02:33:01;5.93;;;5.45;;
20535;SDS011;10426;49.420;8.390;2023-04-25T02:35:28;6.57;;;5.70;;
20535;SDS011;10426;49.420;8.390;2023-04-25T02:37:55;5.53;;;5.20;;
20535;SDS011;10426;49.420;8.390;2023-04-25T02:40:21;5.70;;;5.32;;
20535;SDS011;10426;49.420;8.390;2023-04-25T02:42:48;5.90;;;5.50;;
20535;SDS011;10426;49.420;8.390;2023-04-25T02:45:14;5.75;;;5.35;;
20535;SDS011;10426;49.420;8.390;2023-04-25T02:47:43;5.82;;;5.53;;
20535;SDS011;10426;49.420;8.390;2023-04-25T02:50:09;6.05;;;5.65;;
20535;SDS011;10426;49.420;8.390;2023-04-25T02:52:37;6.03;;;5.70;;
20535;SDS011;10426;49.420;8.390;2023-04-25T02:55:04;5.85;;;5.45;;
20535;SDS011;10426;49.420;8.390;2023-04-25T02:57:30;5.72;;;5.32;;
20535;SDS011;10426;49.420;8.390;2023-04-25T02:59:57;5.72;;;5.30;;
20535;SDS011;10426;49.420;8.390;2023-04-25T03:02:23;6.00;;;5.60;;
20535;SDS011;10426;49.420;8.390;2023-04-25T03:04:51;5.93;;;5.53;;
20535;SDS011;10426;49.420;8.390;2023-04-25T03:07:19;6.30;;;5.90;;
20535;SDS011;10426;49.420;8.390;2023-04-25T03:09:45;5.80;;;5.40;;
20535;SDS011;10426;49.420;8.390;2023-04-25T03:12:12;5.60;;;5.30;;
20535;SDS011;10426;49.420;8.390;2023-04-25T03:14:39;6.03;;;5.63;;
20535;SDS011;10426;49.420;8.390;2023-04-25T03:17:05;5.80;;;5.50;;
20535;SDS011;10426;49.420;8.390;2023-04-25T03:19:32;5.88;;;5.47;;
20535;SDS011;10426;49.420;8.390;2023-04-25T03:22:00;6.43;;;6.03;;
20535;SDS011;10426;49.420;8.390;2023-04-25T03:24:26;5.90;;;5.60;;
20535;SDS011;10426;49.420;8.390;2023-04-25T03:26:53;5.85;;;5.50;;
20535;SDS011;10426;49.420;8.390;2023-04-25T03:29:20;5.82;;;5.43;;
20535;SDS011;10426;49.420;8.390;2023-04-25T03:31:49;5.57;;;5.28;;
20535;SDS011;10426;49.420;8.390;2023-04-25T03:34:16;5.73;;;5.33;;
20535;SDS011;10426;49.420;8.390;2023-04-25T03:36:43;5.88;;;5.47;;
20535;SDS011;10426;49.420;8.390;2023-04-25T03:39:11;6.00;;;5.60;;
20535;SDS011;10426;49.420;8.390;2023-04-25T03:41:37;5.60;;;5.30;;
20535;SDS011;10426;49.420;8.390;2023-04-25T03:44:04;5.57;;;5.18;;
20535;SDS011;10426;49.420;8.390;2023-04-25T03:46:30;5.97;;;5.57;;
20535;SDS011;10426;49.420;8.390;2023-04-25T03:48:58;5.70;;;5.40;;
20535;SDS011;10426;49.420;8.390;2023-04-25T03:51:25;5.85;;;5.45;;
20535;SDS011;10426;49.420;8.390;2023-04-25T03:53:52;5.10;;;4.80;;
20535;SDS011;10426;49.420;8.390;2023-04-25T03:56:20;5.25;;;4.90;;
20535;SDS011;10426;49.420;8.390;2023-04-25T03:58:46;5.00;;;4.70;;
20535;SDS011;10426;49.420;8.390;2023-04-25T04:01:14;5.20;;;4.90;;
20535;SDS011;10426;49.420;8.390;2023-04-25T04:03:40;4.55;;;4.25;;
20535;SDS011;10426;49.420;8.390;2023-04-25T04:06:07;5.18;;;4.88;;
20535;SDS011;10426;49.420;8.390;2023-04-25T04:08:34;5.27;;;4.97;;
20535;SDS011;10426;49.420;8.390;2023-04-25T04:11:00;5.07;;;4.78;;
20535;SDS011;10426;49.420;8.390;2023-04-25T04:13:28;5.05;;;4.72;;
20535;SDS011;10426;49.420;8.390;2023-04-25T04:15:55;5.65;;;5.25;;
20535;SDS011;10426;49.420;8.390;2023-04-25T04:18:22;5.00;;;4.70;;
20535;SDS011;10426;49.420;8.390;2023-04-25T04:20:49;4.60;;;4.40;;
20535;SDS011;10426;49.420;8.390;2023-04-25T04:23:16;5.40;;;5.00;;
20535;SDS011;10426;49.420;8.390;2023-04-25T04:25:42;5.18;;;4.88;;
20535;SDS011;10426;49.420;8.390;2023-04-25T04:28:09;5.43;;;5.13;;
20535;SDS011;10426;49.420;8.390;2023-04-25T04:30:37;5.70;;;5.30;;
20535;SDS011;10426;49.420;8.390;2023-04-25T04:33:04;5.40;;;5.10;;
20535;SDS011;10426;49.420;8.390;2023-04-25T04:35:32;5.10;;;4.70;;
20535;SDS011;10426;49.420;8.390;2023-04-25T04:37:59;6.00;;;5.50;;
20535;SDS011;10426;49.420;8.390;2023-04-25T04:40:25;6.30;;;5.80;;
20535;SDS011;10426;49.420;8.390;2023-04-25T04:42:53;5.60;;;5.20;;
20535;SDS011;10426;49.420;8.390;2023-04-25T04:45:21;5.93;;;5.57;;
20535;SDS011;10426;49.420;8.390;2023-04-25T04:47:49;5.43;;;5.13;;
20535;SDS011;10426;49.420;8.390;2023-04-25T04:50:16;5.70;;;5.30;;
20535;SDS011;10426;49.420;8.390;2023-04-25T04:52:43;5.70;;;5.30;;
20535;SDS011;10426;49.420;8.390;2023-04-25T04:55:10;5.63;;;5.30;;
20535;SDS011;10426;49.420;8.390;2023-04-25T04:57:36;5.53;;;5.15;;
20535;SDS011;10426;49.420;8.390;2023-04-25T05:00:04;5.30;;;5.00;;
20535;SDS011;10426;49.420;8.390;2023-04-25T05:02:36;5.38;;;5.07;;
20535;SDS011;10426;49.420;8.390;2023-04-25T05:05:04;5.53;;;5.18;;
20535;SDS011;10426;49.420;8.390;2023-04-25T05:07:31;5.53;;;5.20;;
20535;SDS011;10426;49.420;8.390;2023-04-25T05:09:57;5.13;;;4.83;;
20535;SDS011;10426;49.420;8.390;2023-04-25T05:12:24;5.20;;;4.90;;
20535;SDS011;10426;49.420;8.390;2023-04-25T05:14:50;4.97;;;4.63;;
20535;SDS011;10426;49.420;8.390;2023-04-25T05:17:17;5.20;;;4.90;;
20535;SDS011;10426;49.420;8.390;2023-04-25T05:19:44;4.70;;;4.50;;
20535;SDS011;10426;49.420;8.390;2023-04-25T05:22:12;5.10;;;4.80;;
20535;SDS011;10426;49.420;8.390;2023-04-25T05:24:38;5.10;;;4.80;;
20535;SDS011;10426;49.420;8.390;2023-04-25T05:27:05;5.03;;;4.80;;
20535;SDS011;10426;49.420;8.390;2023-04-25T05:29:32;4.80;;;4.60;;
20535;SDS011;10426;49.420;8.390;2023-04-25T05:31:58;4.85;;;4.53;;
20535;SDS011;10426;49.420;8.390;2023-04-25T05:34:25;4.70;;;4.40;;
20535;SDS011;10426;49.420;8.390;2023-04-25T05:36:51;5.00;;;4.70;;
20535;SDS011;10426;49.420;8.390;2023-04-25T05:39:19;4.63;;;4.23;;
20535;SDS011;10426;49.420;8.390;2023-04-25T05:41:46;5.33;;;4.93;;
20535;SDS011;10426;49.420;8.390;2023-04-25T05:44:13;5.50;;;5.10;;
20535;SDS011;10426;49.420;8.390;2023-04-25T05:46:41;4.73;;;4.43;;
20535;SDS011;10426;49.420;8.390;2023-04-25T05:49:07;4.85;;;4.55;;
20535;SDS011;10426;49.420;8.390;2023-04-25T05:51:34;5.30;;;5.00;;
20535;SDS011;10426;49.420;8.390;2023-04-25T05:54:01;5.50;;;5.13;;
20535;SDS011;10426;49.420;8.390;2023-04-25T05:56:29;5.53;;;5.03;;
20535;SDS011;10426;49.420;8.390;2023-04-25T05:58:55;5.77;;;5.37;;
20535;SDS011;10426;49.420;8.390;2023-04-25T06:01:22;6.53;;;5.93;;
20535;SDS011;10426;49.420;8.390;2023-04-25T06:03:49;6.50;;;6.10;;
20535;SDS011;10426;49.420;8.390;2023-04-25T06:06:16;7.03;;;6.53;;
20535;SDS011;10426;49.420;8.390;2023-04-25T06:08:43;6.38;;;5.90;;
20535;SDS011;10426;49.420;8.390;2023-04-25T06:11:10;7.00;;;6.50;;
20535;SDS011;10426;49.420;8.390;2023-04-25T06:13:38;6.80;;;6.30;;
20535;SDS011;10426;49.420;8.390;2023-04-25T06:16:05;6.70;;;6.20;;
20535;SDS011;10426;49.420;8.390;2023-04-25T06:18:31;6.93;;;6.43;;
20535;SDS011;10426;49.420;8.390;2023-04-25T06:20:58;7.07;;;6.55;;
20535;SDS011;10426;49.420;8.390;2023-04-25T06:23:25;7.00;;;6.50;;
20535;SDS011;10426;49.420;8.390;2023-04-25T06:25:51;6.88;;;6.38;;
20535;SDS011;10426;49.420;8.390;2023-04-25T06:28:18;7.40;;;6.80;;
20535;SDS011;10426;49.420;8.390;2023-04-25T06:30:48;7.68;;;7.18;;
20535;SDS011;10426;49.420;8.390;2023-04-25T06:33:15;7.10;;;6.60;;
20535;SDS011;10426;49.420;8.390;2023-04-25T06:35:42;7.25;;;6.75;;
20535;SDS011;10426;49.420;8.390;2023-04-25T06:38:08;7.25;;;6.75;;
20535;SDS011;10426;49.420;8.390;2023-04-25T06:40:35;7.57;;;6.97;;
20535;SDS011;10426;49.420;8.390;2023-04-25T06:43:03;7.03;;;6.53;;
20535;SDS011;10426;49.420;8.390;2023-04-25T06:45:30;7.50;;;7.00;;
20535;SDS011;10426;49.420;8.390;2023-04-25T06:47:59;7.93;;;7.40;;
20535;SDS011;10426;49.420;8.390;2023-04-25T06:50:26;6.40;;;6.00;;
20535;SDS011;10426;49.420;8.390;2023-04-25T06:52:52;7.57;;;6.97;;
20535;SDS011;10426;49.420;8.390;2023-04-25T06:55:19;7.35;;;6.75;;
20535;SDS011;10426;49.420;8.390;2023-04-25T06:57:46;7.03;;;6.50;;
20535;SDS011;10426;49.420;8.390;2023-04-25T07:00:13;8.07;;;7.38;;
20535;SDS011;10426;49.420;8.390;2023-04-25T07:02:40;8.48;;;7.68;;
20535;SDS011;10426;49.420;8.390;2023-04-25T07:05:10;8.23;;;7.50;;
20535;SDS011;10426;49.420;8.390;2023-04-25T07:07:36;7.80;;;7.20;;
20535;SDS011;10426;49.420;8.390;2023-04-25T07:10:03;7.63;;;6.97;;
20535;SDS011;10426;49.420;8.390;2023-04-25T07:12:30;6.63;;;6.13;;
20535;SDS011;10426;49.420;8.390;2023-04-25T07:14:57;8.13;;;6.05;;
20535;SDS011;10426;49.420;8.390;2023-04-25T07:17:24;8.10;;;6.13;;
20535;SDS011;10426;49.420;8.390;2023-04-25T07:19:50;9.45;;;5.90;;
20535;SDS011;10426;49.420;8.390;2023-04-25T07:22:18;9.43;;;5.90;;
20535;SDS011;10426;49.420;8.390;2023-04-25T07:24:45;7.68;;;5.55;;
20535;SDS011;10426;49.420;8.390;2023-04-25T07:27:13;10.77;;;6.03;;
20535;SDS011;10426;49.420;8.390;2023-04-25T07:29:40;8.05;;;5.45;;
20535;SDS011;10426;49.420;8.390;2023-04-25T07:32:07;9.55;;;5.35;;
20535;SDS011;10426;49.420;8.390;2023-04-25T07:34:35;7.23;;;5.07;;
20535;SDS011;10426;49.420;8.390;2023-04-25T07:37:02;6.00;;;4.70;;
20535;SDS011;10426;49.420;8.390;2023-04-25T07:39:30;7.78;;;5.15;;
20535;SDS011;10426;49.420;8.390;2023-04-25T07:41:57;7.07;;;4.55;;
20535;SDS011;10426;49.420;8.390;2023-04-25T07:44:25;7.43;;;4.45;;
20535;SDS011;10426;49.420;8.390;2023-04-25T07:46:52;6.65;;;4.50;;
20535;SDS011;10426;49.420;8.390;2023-04-25T07:49:18;8.73;;;4.90;;
20535;SDS011;10426;49.420;8.390;2023-04-25T07:51:45;7.45;;;5.05;;
20535;SDS011;10426;49.420;8.390;2023-04-25T07:54:13;10.45;;;5.68;;
20535;SDS011;10426;49.420;8.390;2023-04-25T07:56:41;7.88;;;5.63;;
20535;SDS011;10426;49.420;8.390;2023-04-25T07:59:08;7.45;;;5.40;;
20535;SDS011;10426;49.420;8.390;2023-04-25T08:01:34;10.95;;;5.88;;
20535;SDS011;10426;49.420;8.390;2023-04-25T08:04:01;9.82;;;6.10;;
20535;SDS011;10426;49.420;8.390;2023-04-25T08:06:28;10.85;;;5.68;;
20535;SDS011;10426;49.420;8.390;2023-04-25T08:08:54;7.85;;;5.57;;
20535;SDS011;10426;49.420;8.390;2023-04-25T08:11:21;9.10;;;5.78;;
20535;SDS011;10426;49.420;8.390;2023-04-25T08:13:49;8.15;;;5.90;;
20535;SDS011;10426;49.420;8.390;2023-04-25T08:16:16;7.47;;;5.82;;
20535;SDS011;10426;49.420;8.390;2023-04-25T08:18:42;10.93;;;6.37;;
20535;SDS011;10426;49.420;8.390;2023-04-25T08:21:09;10.75;;;7.35;;
20535;SDS011;10426;49.420;8.390;2023-04-25T08:23:36;11.40;;;6.75;;
20535;SDS011;10426;49.420;8.390;2023-04-25T08:26:03;9.90;;;6.57;;
20535;SDS011;10426;49.420;8.390;2023-04-25T08:28:30;11.27;;;6.20;;
20535;SDS011;10426;49.420;8.390;2023-04-25T08:30:58;7.72;;;6.10;;
20535;SDS011;10426;49.420;8.390;2023-04-25T08:33:24;10.90;;;6.50;;
20535;SDS011;10426;49.420;8.390;2023-04-25T08:35:51;10.05;;;6.00;;
20535;SDS011;10426;49.420;8.390;2023-04-25T08:38:18;10.88;;;7.05;;
20535;SDS011;10426;49.420;8.390;2023-04-25T08:40:45;9.60;;;7.18;;
20535;SDS011;10426;49.420;8.390;2023-04-25T08:43:14;10.18;;;7.80;;
20535;SDS011;10426;49.420;8.390;2023-04-25T08:45:41;15.05;;;7.47;;
20535;SDS011;10426;49.420;8.390;2023-04-25T08:48:10;9.43;;;7.03;;
20535;SDS011;10426;49.420;8.390;2023-04-25T08:50:37;8.98;;;6.18;;
20535;SDS011;10426;49.420;8.390;2023-04-25T08:53:04;8.18;;;6.47;;
20535;SDS011;10426;49.420;8.390;2023-04-25T08:55:35;8.98;;;5.60;;
20535;SDS011;10426;49.420;8.390;2023-04-25T08:58:02;10.63;;;6.35;;
20535;SDS011;10426;49.420;8.390;2023-04-25T09:00:29;11.60;;;6.63;;
20535;SDS011;10426;49.420;8.390;2023-04-25T09:02:56;9.00;;;6.15;;
20535;SDS011;10426;49.420;8.390;2023-04-25T09:05:24;7.40;;;4.75;;
20535;SDS011;10426;49.420;8.390;2023-04-25T09:07:51;7.85;;;4.47;;
20535;SDS011;10426;49.420;8.390;2023-04-25T09:10:17;7.43;;;4.72;;
20535;SDS011;10426;49.420;8.390;2023-04-25T09:12:44;7.18;;;4.22;;
20535;SDS011;10426;49.420;8.390;2023-04-25T09:15:12;8.13;;;4.55;;
20535;SDS011;10426;49.420;8.390;2023-04-25T09:17:41;6.38;;;4.57;;
20535;SDS011;10426;49.420;8.390;2023-04-25T09:20:10;8.68;;;4.28;;
20535;SDS011;10426;49.420;8.390;2023-04-25T09:22:38;6.68;;;4.47;;
20535;SDS011;10426;49.420;8.390;2023-04-25T09:25:07;7.67;;;4.70;;
20535;SDS011;10426;49.420;8.390;2023-04-25T09:27:35;7.38;;;4.47;;
20535;SDS011;10426;49.420;8.390;2023-04-25T09:30:02;7.80;;;4.45;;
20535;SDS011;10426;49.420;8.390;2023-04-25T09:32:28;8.90;;;4.90;;
20535;SDS011;10426;49.420;8.390;2023-04-25T09:34:55;8.95;;;4.70;;
20535;SDS011;10426;49.420;8.390;2023-04-25T09:37:23;7.22;;;4.47;;
20535;SDS011;10426;49.420;8.390;2023-04-25T09:39:52;7.45;;;4.40;;
20535;SDS011;10426;49.420;8.390;2023-04-25T09:42:21;5.07;;;3.80;;
20535;SDS011;10426;49.420;8.390;2023-04-25T09:44:49;5.97;;;3.45;;
20535;SDS011;10426;49.420;8.390;2023-04-25T09:47:17;5.90;;;3.67;;
20535;SDS011;10426;49.420;8.390;2023-04-25T09:49:46;6.88;;;3.53;;
20535;SDS011;10426;49.420;8.390;2023-04-25T09:52:14;5.78;;;3.80;;
20535;SDS011;10426;49.420;8.390;2023-04-25T09:54:41;7.28;;;4.00;;
20535;SDS011;10426;49.420;8.390;2023-04-25T09:57:11;6.30;;;3.95;;
20535;SDS011;10426;49.420;8.390;2023-04-25T09:59:38;5.90;;;3.30;;
20535;SDS011;10426;49.420;8.390;2023-04-25T10:02:06;5.63;;;3.50;;
20535;SDS011;10426;49.420;8.390;2023-04-25T10:04:34;5.65;;;3.20;;
20535;SDS011;10426;49.420;8.390;2023-04-25T10:07:01;5.70;;;3.10;;
20535;SDS011;10426;49.420;8.390;2023-04-25T10:09:27;5.80;;;3.58;;
20535;SDS011;10426;49.420;8.390;2023-04-25T10:11:57;6.35;;;3.58;;
20535;SDS011;10426;49.420;8.390;2023-04-25T10:14:25;4.63;;;3.60;;
20535;SDS011;10426;49.420;8.390;2023-04-25T10:16:52;6.88;;;3.90;;
20535;SDS011;10426;49.420;8.390;2023-04-25T10:19:21;7.30;;;4.10;;
20535;SDS011;10426;49.420;8.390;2023-04-25T10:21:48;5.07;;;3.80;;
20535;SDS011;10426;49.420;8.390;2023-04-25T10:24:16;5.95;;;3.50;;
20535;SDS011;10426;49.420;8.390;2023-04-25T10:26:43;6.45;;;3.85;;
20535;SDS011;10426;49.420;8.390;2023-04-25T10:29:09;6.80;;;4.00;;
20535;SDS011;10426;49.420;8.390;2023-04-25T10:31:45;7.57;;;4.33;;
20535;SDS011;10426;49.420;8.390;2023-04-25T10:34:12;5.38;;;3.72;;
20535;SDS011;10426;49.420;8.390;2023-04-25T10:36:39;7.13;;;4.10;;
20535;SDS011;10426;49.420;8.390;2023-04-25T10:39:06;4.43;;;4.03;;
20535;SDS011;10426;49.420;8.390;2023-04-25T10:41:46;5.53;;;4.07;;
20535;SDS011;10426;49.420;8.390;2023-04-25T10:44:14;8.80;;;4.30;;
20535;SDS011;10426;49.420;8.390;2023-04-25T10:46:40;3.75;;;3.40;;
20535;SDS011;10426;49.420;8.390;2023-04-25T10:49:08;5.07;;;3.45;;
20535;SDS011;10426;49.420;8.390;2023-04-25T10:51:36;4.85;;;3.17;;
20535;SDS011;10426;49.420;8.390;2023-04-25T10:54:02;4.68;;;3.40;;
20535;SDS011;10426;49.420;8.390;2023-04-25T10:56:30;4.20;;;3.30;;
20535;SDS011;10426;49.420;8.390;2023-04-25T10:59:04;5.13;;;3.40;;
20535;SDS011;10426;49.420;8.390;2023-04-25T11:01:35;4.28;;;3.30;;
20535;SDS011;10426;49.420;8.390;2023-04-25T11:04:02;4.70;;;3.38;;
20535;SDS011;10426;49.420;8.390;2023-04-25T11:06:32;5.25;;;3.67;;
20535;SDS011;10426;49.420;8.390;2023-04-25T11:09:02;5.10;;;3.65;;
20535;SDS011;10426;49.420;8.390;2023-04-25T11:11:29;5.60;;;3.72;;
20535;SDS011;10426;49.420;8.390;2023-04-25T11:13:56;5.90;;;4.00;;
20535;SDS011;10426;49.420;8.390;2023-04-25T11:16:23;7.07;;;3.90;;
20535;SDS011;10426;49.420;8.390;2023-04-25T11:18:50;4.45;;;3.47;;
20535;SDS011;10426;49.420;8.390;2023-04-25T11:21:17;4.40;;;3.67;;
20535;SDS011;10426;49.420;8.390;2023-04-25T11:23:45;5.40;;;3.35;;
20535;SDS011;10426;49.420;8.390;2023-04-25T11:26:12;4.30;;;3.47;;
20535;SDS011;10426;49.420;8.390;2023-04-25T11:28:39;4.75;;;3.08;;
20535;SDS011;10426;49.420;8.390;2023-04-25T11:31:05;3.35;;;3.05;;
20535;SDS011;10426;49.420;8.390;2023-04-25T11:33:32;4.00;;;3.20;;
20535;SDS011;10426;49.420;8.390;2023-04-25T11:35:59;5.13;;;3.22;;
20535;SDS011;10426;49.420;8.390;2023-04-25T11:38:25;3.88;;;3.20;;
20535;SDS011;10426;49.420;8.390;2023-04-25T11:40:53;5.07;;;3.47;;
20535;SDS011;10426;49.420;8.390;2023-04-25T11:43:20;4.88;;;3.05;;
20535;SDS011;10426;49.420;8.390;2023-04-25T11:45:47;7.28;;;3.25;;
20535;SDS011;10426;49.420;8.390;2023-04-25T11:48:14;3.95;;;3.35;;
20535;SDS011;10426;49.420;8.390;2023-04-25T11:50:41;4.75;;;3.38;;
20535;SDS011;10426;49.420;8.390;2023-04-25T11:53:07;3.30;;;3.00;;
20535;SDS011;10426;49.420;8.390;2023-04-25T11:55:35;3.83;;;2.97;;
20535;SDS011;10426;49.420;8.390;2023-04-25T11:58:04;5.07;;;3.20;;
20535;SDS011;10426;49.420;8.390;2023-04-25T12:00:31;4.07;;;2.92;;
20535;SDS011;10426;49.420;8.390;2023-04-25T12:02:57;3.72;;;3.25;;
20535;SDS011;10426;49.420;8.390;2023-04-25T12:05:26;4.10;;;3.15;;
20535;SDS011;10426;49.420;8.390;2023-04-25T12:07:52;4.38;;;3.30;;
20535;SDS011;10426;49.420;8.390;2023-04-25T12:10:19;3.45;;;3.15;;
20535;SDS011;10426;49.420;8.390;2023-04-25T12:12:46;4.37;;;2.73;;
20535;SDS011;10426;49.420;8.390;2023-04-25T12:15:16;5.05;;;2.97;;
20535;SDS011;10426;49.420;8.390;2023-04-25T12:17:44;4.35;;;3.13;;
20535;SDS011;10426;49.420;8.390;2023-04-25T12:20:12;3.35;;;3.00;;
20535;SDS011;10426;49.420;8.390;2023-04-25T12:22:40;4.35;;;2.95;;
20535;SDS011;10426;49.420;8.390;2023-04-25T12:25:10;3.77;;;2.70;;
20535;SDS011;10426;49.420;8.390;2023-04-25T12:27:36;3.50;;;2.70;;
20535;SDS011;10426;49.420;8.390;2023-04-25T12:30:03;3.35;;;2.60;;
20535;SDS011;10426;49.420;8.390;2023-04-25T12:32:31;2.60;;;2.40;;
20535;SDS011;10426;49.420;8.390;2023-04-25T12:34:58;2.95;;;2.65;;
20535;SDS011;10426;49.420;8.390;2023-04-25T12:37:25;2.85;;;2.55;;
20535;SDS011;10426;49.420;8.390;2023-04-25T12:39:52;2.40;;;2.20;;
20535;SDS011;10426;49.420;8.390;2023-04-25T12:42:18;3.72;;;2.60;;
20535;SDS011;10426;49.420;8.390;2023-04-25T12:44:45;3.20;;;2.90;;
20535;SDS011;10426;49.420;8.390;2023-04-25T12:47:12;3.53;;;2.73;;
20535;SDS011;10426;49.420;8.390;2023-04-25T12:49:42;5.57;;;3.40;;
20535;SDS011;10426;49.420;8.390;2023-04-25T12:52:09;26.48;;;17.08;;
20535;SDS011;10426;49.420;8.390;2023-04-25T12:54:35;5.82;;;3.20;;
20535;SDS011;10426;49.420;8.390;2023-04-25T12:57:02;7.10;;;5.00;;
20535;SDS011;10426;49.420;8.390;2023-04-25T12:59:29;4.15;;;3.42;;
20535;SDS011;10426;49.420;8.390;2023-04-25T13:01:55;4.20;;;2.70;;
20535;SDS011;10426;49.420;8.390;2023-04-25T13:04:22;5.33;;;3.30;;
20535;SDS011;10426;49.420;8.390;2023-04-25T13:06:50;3.47;;;2.80;;
20535;SDS011;10426;49.420;8.390;2023-04-25T13:09:17;3.50;;;2.90;;
20535;SDS011;10426;49.420;8.390;2023-04-25T13:11:43;3.80;;;3.03;;
20535;SDS011;10426;49.420;8.390;2023-04-25T13:14:11;5.57;;;3.33;;
20535;SDS011;10426;49.420;8.390;2023-04-25T13:16:37;5.65;;;3.10;;
20535;SDS011;10426;49.420;8.390;2023-04-25T13:19:04;3.38;;;3.00;;
20535;SDS011;10426;49.420;8.390;2023-04-25T13:21:33;6.35;;;3.45;;
20535;SDS011;10426;49.420;8.390;2023-04-25T13:24:00;5.75;;;3.40;;
20535;SDS011;10426;49.420;8.390;2023-04-25T13:26:27;5.53;;;3.20;;
20535;SDS011;10426;49.420;8.390;2023-04-25T13:28:54;5.47;;;3.37;;
20535;SDS011;10426;49.420;8.390;2023-04-25T13:31:20;5.93;;;3.28;;
20535;SDS011;10426;49.420;8.390;2023-04-25T13:33:47;6.07;;;3.00;;
20535;SDS011;10426;49.420;8.390;2023-04-25T13:36:14;4.95;;;3.33;;
20535;SDS011;10426;49.420;8.390;2023-04-25T13:38:40;5.65;;;3.40;;
20535;SDS011;10426;49.420;8.390;2023-04-25T13:41:10;5.77;;;3.50;;
20535;SDS011;10426;49.420;8.390;2023-04-25T13:43:41;7.38;;;3.35;;
20535;SDS011;10426;49.420;8.390;2023-04-25T13:46:08;4.30;;;3.40;;
20535;SDS011;10426;49.420;8.390;2023-04-25T13:48:35;4.85;;;3.17;;
20535;SDS011;10426;49.420;8.390;2023-04-25T13:51:01;5.05;;;3.22;;
20535;SDS011;10426;49.420;8.390;2023-04-25T13:53:28;6.25;;;3.50;;
20535;SDS011;10426;49.420;8.390;2023-04-25T13:55:55;4.93;;;3.10;;
20535;SDS011;10426;49.420;8.390;2023-04-25T13:58:23;5.40;;;3.30;;
20535;SDS011;10426;49.420;8.390;2023-04-25T14:00:50;4.93;;;3.40;;
20535;SDS011;10426;49.420;8.390;2023-04-25T14:03:17;5.88;;;3.60;;
20535;SDS011;10426;49.420;8.390;2023-04-25T14:05:43;7.25;;;3.85;;
20535;SDS011;10426;49.420;8.390;2023-04-25T14:08:10;6.72;;;3.47;;
20535;SDS011;10426;49.420;8.390;2023-04-25T14:10:37;6.13;;;3.38;;
20535;SDS011;10426;49.420;8.390;2023-04-25T14:13:03;7.07;;;3.50;;
20535;SDS011;10426;49.420;8.390;2023-04-25T14:15:32;5.32;;;3.40;;
20535;SDS011;10426;49.420;8.390;2023-04-25T14:17:59;6.45;;;3.22;;
20535;SDS011;10426;49.420;8.390;2023-04-25T14:20:26;6.07;;;2.97;;
20535;SDS011;10426;49.420;8.390;2023-04-25T14:22:52;7.53;;;3.42;;
20535;SDS011;10426;49.420;8.390;2023-04-25T14:25:21;6.50;;;3.03;;
20535;SDS011;10426;49.420;8.390;2023-04-25T14:27:48;4.95;;;3.17;;
20535;SDS011;10426;49.420;8.390;2023-04-25T14:30:15;7.68;;;3.33;;
20535;SDS011;10426;49.420;8.390;2023-04-25T14:32:43;5.32;;;2.80;;
20535;SDS011;10426;49.420;8.390;2023-04-25T14:35:10;6.13;;;3.20;;
20535;SDS011;10426;49.420;8.390;2023-04-25T14:37:37;4.32;;;2.92;;
20535;SDS011;10426;49.420;8.390;2023-04-25T14:40:03;4.97;;;2.92;;
20535;SDS011;10426;49.420;8.390;2023-04-25T14:42:34;4.90;;;2.72;;
20535;SDS011;10426;49.420;8.390;2023-04-25T14:45:00;8.07;;;2.90;;
20535;SDS011;10426;49.420;8.390;2023-04-25T14:47:27;4.85;;;2.60;;